Etusivu
METAR-TAF:

METAR-TAF

Lentoasemat :

Chicago Executive Airport

Wheeling / Prospect Heights, Illinois, Yhdysvallat

Leveyspiiri: 42-07-15N, Pituuspiiri: 087-54-17W, korkeus merenpinnasta: 197 m

Tämänhetkinen sää

Tämä raportti tehtiin 52 minuuttia sitten, kello 18.59 UTC
Tuuli 7 kn etelästä
Lämpötila 1°C
Kosteus 86%
Ilmanpaine 1017 hPa
Näkyvyys: 1.6 km
Pilvistä 1000 ft:n korkeudessa
heikkoa lumisadetta, utua

METAR: KPWK 231859Z 17007KT 1SM -SN BR OVC010 01/M01 A3004 RMK AO2 SFC VIS 3 CIG 007V014 P0000 T00111011

Aika: 13:51 (19:51 UTC)


TAF: puuttuu

Säähavainnot ja -ennusteet yli 4000 lentoasemalta (METAR- ja TAF-raportit).

Käytössä olevat sääasemat on merkitty karttaan keltaisilla ja punaisilla pisteillä.

Aseta hiiri pisteen päälle nähdäksesi sääaseman nimen.

Klikkaa sitten nähdäksesi säähavainnot ja -ennusteet.

Kartan vaihtaminen: klikkaa mustalla rastilla varustettuja vihreitä pisteitä, niin voit zoomata sisään; viivalla varustettua vihreää pistettä, niin voit zoomata ulos tai vihreitä nuolia, niin pääset viereisille kartoille.


METAR-TAF: